createdAt,value
2022-08-09T00:00:04.417Z,8.50
2022-08-09T00:02:37.824Z,8.27
2022-08-09T00:06:17.978Z,8.90
2022-08-09T00:08:04.204Z,8.53
2022-08-09T00:10:37.243Z,8.97
2022-08-09T00:13:17.125Z,9.00
2022-08-09T00:15:57.983Z,8.40
2022-08-09T00:18:35.686Z,8.77
2022-08-09T00:21:08.622Z,9.40
2022-08-09T00:23:55.082Z,8.73
2022-08-09T00:26:29.759Z,8.57
2022-08-09T00:31:59.132Z,8.27
2022-08-09T00:34:27.801Z,8.07
2022-08-09T00:37:00.386Z,8.70
2022-08-09T00:40:12.162Z,8.47
2022-08-09T00:44:14.429Z,8.47
2022-08-09T00:45:03.608Z,8.90
2022-08-09T00:47:42.251Z,8.90
2022-08-09T00:50:14.460Z,8.10
2022-08-09T00:52:41.567Z,7.93
2022-08-09T00:55:08.511Z,8.20
2022-08-09T00:57:43.664Z,7.70
2022-08-09T01:00:21.763Z,8.17
2022-08-09T01:05:54.520Z,7.93
2022-08-09T01:08:30.195Z,8.03
2022-08-09T01:11:15.044Z,8.13
2022-08-09T01:16:50.277Z,7.13
2022-08-09T01:19:39.913Z,7.57
2022-08-09T01:22:16.433Z,7.00
2022-08-09T01:27:29.173Z,7.13
2022-08-09T01:29:57.845Z,7.13
2022-08-09T01:32:39.185Z,7.23
2022-08-09T01:38:10.801Z,7.67
2022-08-09T01:40:44.092Z,7.47
2022-08-09T01:43:11.267Z,7.77
2022-08-09T01:45:44.758Z,7.43
2022-08-09T01:48:17.505Z,7.83
2022-08-09T01:50:48.090Z,7.70
2022-08-09T01:53:20.052Z,7.13
2022-08-09T01:55:48.600Z,7.57
2022-08-09T01:58:15.714Z,7.13
2022-08-09T02:00:43.389Z,7.20
2022-08-09T02:03:13.924Z,7.43
2022-08-09T02:06:03.354Z,6.97
2022-08-09T02:08:38.706Z,6.93
2022-08-09T02:11:16.976Z,7.67
2022-08-09T02:13:44.335Z,7.27
2022-08-09T02:16:35.298Z,7.07
2022-08-09T02:19:20.513Z,7.03
2022-08-09T02:24:35.460Z,6.33
2022-08-09T02:27:02.922Z,6.50
2022-08-09T02:29:34.374Z,6.77
2022-08-09T02:32:01.396Z,6.70
2022-08-09T02:34:40.836Z,7.23
2022-08-09T02:37:14.612Z,7.20
2022-08-09T02:39:49.885Z,6.53
2022-08-09T02:42:31.237Z,6.20
2022-08-09T02:45:06.589Z,6.13
2022-08-09T02:47:33.782Z,6.57
2022-08-09T02:50:24.374Z,6.60
2022-08-09T02:52:55.141Z,6.60
2022-08-09T02:55:23.535Z,5.77
2022-08-09T02:58:32.988Z,5.57
2022-08-09T03:00:57.822Z,6.33
2022-08-09T03:03:59.619Z,6.23
2022-08-09T03:08:59.548Z,6.10
2022-08-09T03:14:10.966Z,6.03
2022-08-09T03:16:41.747Z,6.33
2022-08-09T03:19:16.755Z,6.47
2022-08-09T03:21:59.270Z,6.63
2022-08-09T03:24:31.574Z,6.90
2022-08-09T03:27:09.806Z,6.87
2022-08-09T03:29:57.087Z,6.50
2022-08-09T03:35:15.083Z,6.73
2022-08-09T03:37:56.105Z,6.93
2022-08-09T03:40:25.645Z,6.90
2022-08-09T03:46:05.048Z,6.90
2022-08-09T03:48:30.625Z,5.93
2022-08-09T03:50:57.847Z,6.47
2022-08-09T03:53:32.201Z,6.80
2022-08-09T03:56:04.141Z,7.60
2022-08-09T03:58:32.299Z,7.53
2022-08-09T04:00:59.438Z,6.90
2022-08-09T04:03:45.957Z,7.60
2022-08-09T04:06:15.081Z,7.07
2022-08-09T04:08:46.746Z,6.83
2022-08-09T04:11:13.766Z,7.13
2022-08-09T04:14:36.682Z,7.23
2022-08-09T04:16:28.226Z,7.27
2022-08-09T04:18:55.318Z,6.87
2022-08-09T04:21:24.121Z,6.93
2022-08-09T04:23:53.606Z,8.47
2022-08-09T04:26:24.909Z,7.33
2022-08-09T04:29:09.644Z,7.27
2022-08-09T04:31:47.260Z,6.77
2022-08-09T04:34:14.561Z,6.97
2022-08-09T04:36:50.314Z,7.43
2022-08-09T04:39:17.635Z,7.20
2022-08-09T04:41:44.591Z,7.33
2022-08-09T04:44:14.747Z,7.50
2022-08-09T04:46:59.518Z,7.03
2022-08-09T04:49:53.000Z,7.83
2022-08-09T04:52:31.979Z,8.17
2022-08-09T04:55:13.147Z,7.87
2022-08-09T04:57:54.453Z,7.23
2022-08-09T05:00:31.942Z,6.47
2022-08-09T05:03:12.655Z,5.83
2022-08-09T05:05:51.789Z,6.00
2022-08-09T05:11:07.583Z,5.40
2022-08-09T05:13:38.936Z,5.60
2022-08-09T05:16:15.047Z,5.60
2022-08-09T05:21:36.524Z,6.00
2022-08-09T05:26:58.819Z,4.70
2022-08-09T05:29:31.303Z,5.33
2022-08-09T05:32:02.312Z,4.43
2022-08-09T05:40:04.286Z,4.70
2022-08-09T05:42:31.743Z,4.77
2022-08-09T05:45:00.408Z,4.70
2022-08-09T05:47:30.273Z,4.80
2022-08-09T05:50:25.593Z,4.20
2022-08-09T05:52:53.670Z,4.83
2022-08-09T05:55:23.446Z,4.83
2022-08-09T05:57:57.085Z,4.50
2022-08-09T06:00:29.485Z,4.60
2022-08-09T06:02:57.456Z,3.77
2022-08-09T06:05:50.549Z,3.70
2022-08-09T06:08:12.088Z,3.40
2022-08-09T06:10:38.896Z,3.20
2022-08-09T06:13:18.417Z,3.87
2022-08-09T06:18:33.546Z,3.03
2022-08-09T06:21:00.929Z,3.10
2022-08-09T06:23:58.299Z,3.00
2022-08-09T06:26:21.293Z,2.47
2022-08-09T06:32:58.853Z,2.83
2022-08-09T06:35:11.872Z,2.33
2022-08-09T06:37:53.052Z,2.40
2022-08-09T06:40:28.115Z,2.80
2022-08-09T06:42:55.994Z,3.20
2022-08-09T06:46:07.478Z,2.90
2022-08-09T06:48:09.835Z,2.70
2022-08-09T06:50:43.610Z,2.70
2022-08-09T06:53:13.577Z,2.90
2022-08-09T06:55:41.250Z,2.60
2022-08-09T06:58:08.046Z,2.80
2022-08-09T07:00:58.432Z,2.80
2022-08-09T07:03:28.620Z,2.63
2022-08-09T07:06:03.978Z,2.77
2022-08-09T07:08:32.002Z,6.93
2022-08-09T07:10:58.887Z,2.40
2022-08-09T07:13:29.369Z,2.37
2022-08-09T07:16:42.707Z,5.33
2022-08-09T07:18:44.735Z,2.30
2022-08-09T07:21:14.362Z,2.37
2022-08-09T07:23:56.403Z,2.27
2022-08-09T07:26:25.832Z,2.37
2022-08-09T07:29:08.541Z,2.10
2022-08-09T07:31:46.130Z,2.20
2022-08-09T07:34:19.388Z,1.97
2022-08-09T07:36:47.776Z,2.17
2022-08-09T07:39:20.376Z,2.10
2022-08-09T07:44:52.011Z,1.80
2022-08-09T07:47:20.875Z,2.17
2022-08-09T07:50:05.208Z,2.10
2022-08-09T07:52:35.821Z,2.07
2022-08-09T08:33:53.951Z,2.03
2022-08-09T08:36:29.512Z,1.87
2022-08-09T08:38:57.936Z,1.73
2022-08-09T08:41:24.709Z,1.90
2022-08-09T08:44:08.868Z,1.90
2022-08-09T08:46:41.515Z,1.87
2022-08-09T08:49:38.494Z,2.30
2022-08-09T08:52:41.469Z,2.47
2022-08-09T08:55:01.362Z,2.10
2022-08-09T08:57:30.895Z,2.03
2022-08-09T09:00:02.715Z,2.87
2022-08-09T09:02:35.874Z,2.20
2022-08-09T09:05:03.034Z,2.20
2022-08-09T09:07:42.317Z,2.80
2022-08-09T09:10:10.265Z,2.20
2022-08-09T09:12:37.955Z,2.10
2022-08-09T09:15:06.293Z,2.47
2022-08-09T09:17:49.010Z,2.50
2022-08-09T09:20:20.676Z,2.07
2022-08-09T09:23:02.038Z,2.20
2022-08-09T09:26:04.056Z,2.23
2022-08-09T09:29:02.520Z,2.10
2022-08-09T09:32:06.921Z,2.17
2022-08-09T09:34:10.156Z,1.80
2022-08-09T09:36:52.967Z,1.77
2022-08-09T09:39:50.213Z,1.80
2022-08-09T09:42:22.119Z,1.93
2022-08-09T09:44:55.164Z,1.60
2022-08-09T09:47:23.262Z,2.30
2022-08-09T09:50:13.208Z,2.03
2022-08-09T09:52:52.732Z,2.37
2022-08-09T09:55:32.680Z,2.13
2022-08-09T10:00:53.952Z,2.30
2022-08-09T10:03:44.106Z,2.30
2022-08-09T10:06:12.517Z,2.43
2022-08-09T10:08:54.982Z,2.13
2022-08-09T10:12:04.383Z,2.07
2022-08-09T10:14:31.911Z,2.23
2022-08-09T10:17:50.585Z,2.60
2022-08-09T10:20:14.949Z,2.93
2022-08-09T10:22:42.143Z,2.60
2022-08-09T10:27:57.171Z,2.00
2022-08-09T10:33:29.525Z,2.13
2022-08-09T10:36:01.132Z,2.10
2022-08-09T10:38:54.538Z,2.20
2022-08-09T10:41:16.307Z,2.40
2022-08-09T10:43:50.655Z,2.30
2022-08-09T10:46:55.278Z,2.07
2022-08-09T10:49:54.311Z,3.00
2022-08-09T10:52:30.629Z,2.60
2022-08-09T10:55:01.963Z,2.07
2022-08-09T10:57:36.311Z,2.50
2022-08-09T11:00:20.858Z,2.30
2022-08-09T11:03:11.362Z,2.33
2022-08-09T11:05:36.734Z,2.70
2022-08-09T11:08:30.233Z,2.30
2022-08-09T11:11:08.593Z,2.33
2022-08-09T11:13:50.020Z,2.10
2022-08-09T11:16:35.080Z,2.03
2022-08-09T11:21:56.931Z,2.23
2022-08-09T11:24:51.740Z,1.77
2022-08-09T11:28:02.561Z,1.90
2022-08-09T11:30:33.790Z,1.90
2022-08-09T11:33:16.917Z,2.00
2022-08-09T11:35:50.057Z,2.13
2022-08-09T11:38:18.803Z,2.10
2022-08-09T11:40:45.704Z,2.10
2022-08-09T11:43:17.453Z,1.93
2022-08-09T11:46:03.148Z,2.07
2022-08-09T11:48:31.766Z,2.13
2022-08-09T11:52:53.681Z,2.30
2022-08-09T11:53:57.774Z,1.83
2022-08-09T11:56:47.544Z,2.10
2022-08-09T11:59:29.991Z,1.87
2022-08-09T12:02:18.352Z,1.93
2022-08-09T12:04:47.299Z,1.70
2022-08-09T12:07:14.483Z,2.00
2022-08-09T12:09:50.487Z,1.97
2022-08-09T12:15:22.165Z,3.17
2022-08-09T12:17:59.837Z,4.40
2022-08-09T12:20:26.879Z,2.33
2022-08-09T12:22:57.714Z,2.30
2022-08-09T12:25:31.934Z,2.10
2022-08-09T12:29:13.695Z,2.00
2022-08-09T12:30:59.760Z,2.40
2022-08-09T12:33:51.405Z,2.37
2022-08-09T12:38:57.975Z,2.07
2022-08-09T12:41:25.603Z,2.27
2022-08-09T12:44:06.243Z,1.77
2022-08-09T12:46:34.430Z,2.30
2022-08-09T12:49:03.735Z,2.30
2022-08-09T12:52:01.673Z,2.23
2022-08-09T12:54:17.966Z,2.40
2022-08-09T12:56:53.802Z,1.70
2022-08-09T12:59:23.119Z,1.80
2022-08-09T13:01:58.735Z,2.33
2022-08-09T13:04:37.039Z,1.97
2022-08-09T13:07:12.138Z,1.90
2022-08-09T13:09:41.018Z,1.60
2022-08-09T13:12:12.441Z,2.10
2022-08-09T13:14:44.289Z,2.10
2022-08-09T13:17:21.779Z,1.90
2022-08-09T13:20:13.994Z,1.70
2022-08-09T13:23:05.216Z,2.00
2022-08-09T13:25:41.762Z,1.53
2022-08-09T13:28:10.925Z,2.17
2022-08-09T13:31:11.632Z,1.80
2022-08-09T13:33:52.407Z,1.80
2022-08-09T13:36:24.420Z,1.50
2022-08-09T13:41:19.374Z,1.77
2022-08-09T13:42:01.399Z,1.63
2022-08-09T13:44:28.858Z,2.30
2022-08-09T13:47:27.118Z,1.70
2022-08-09T13:49:58.071Z,1.63
2022-08-09T13:52:28.246Z,1.87
2022-08-09T13:54:59.920Z,2.30
2022-08-09T13:57:39.934Z,2.10
2022-08-09T14:03:16.835Z,1.90
2022-08-09T14:05:56.544Z,1.70
2022-08-09T14:08:28.901Z,1.70
2022-08-09T14:10:56.979Z,1.90
2022-08-09T14:13:27.895Z,2.00
2022-08-09T14:16:15.520Z,2.00
2022-08-09T14:18:45.864Z,1.87
2022-08-09T14:21:20.899Z,1.70
2022-08-09T14:23:55.322Z,1.80
2022-08-09T14:26:30.577Z,1.90
2022-08-09T14:28:59.703Z,2.20
2022-08-09T14:31:35.822Z,1.70
2022-08-09T14:34:13.434Z,2.10
2022-08-09T14:36:44.639Z,1.83
2022-08-09T14:39:11.523Z,1.80
2022-08-09T14:41:40.058Z,2.37
2022-08-09T14:44:11.065Z,1.80
2022-08-09T14:47:04.594Z,1.90
2022-08-09T14:49:26.718Z,2.00
2022-08-09T14:51:58.730Z,1.83
2022-08-09T14:54:28.051Z,2.00
2022-08-09T14:59:44.361Z,1.87
2022-08-09T15:02:13.665Z,1.87
2022-08-09T15:04:42.746Z,1.50
2022-08-09T15:07:10.303Z,2.23
2022-08-09T15:10:07.582Z,1.87
2022-08-09T15:12:24.522Z,2.00
2022-08-09T15:14:54.732Z,2.00
2022-08-09T15:17:21.642Z,1.60
2022-08-09T15:19:59.133Z,1.80
2022-08-09T15:22:29.332Z,1.80
2022-08-09T15:24:56.865Z,1.60
2022-08-09T15:27:23.963Z,1.83
2022-08-09T15:32:39.656Z,1.80
2022-08-09T15:35:18.180Z,1.80
2022-08-09T15:37:56.722Z,1.90
2022-08-09T15:43:29.878Z,2.20
2022-08-09T15:48:58.917Z,1.93
2022-08-09T15:52:02.147Z,1.80
2022-08-09T15:54:33.525Z,1.80
2022-08-09T15:57:09.749Z,2.10
2022-08-09T15:59:37.358Z,2.07
2022-08-09T16:02:05.567Z,2.27
2022-08-09T16:04:34.394Z,2.40
2022-08-09T16:07:01.904Z,2.10
2022-08-09T16:09:51.093Z,2.00
2022-08-09T16:12:16.982Z,2.60
2022-08-09T16:14:47.073Z,2.40
2022-08-09T16:17:17.008Z,2.40
2022-08-09T16:19:49.275Z,2.60
2022-08-09T16:22:16.678Z,3.10
2022-08-09T16:24:43.900Z,2.33
2022-08-09T16:30:15.370Z,2.63
2022-08-09T16:35:56.995Z,2.80
2022-08-09T16:38:25.502Z,3.00
2022-08-09T16:40:52.362Z,2.83
2022-08-09T16:43:21.079Z,2.80
2022-08-09T16:45:48.300Z,2.70
2022-08-09T16:48:40.922Z,2.33
2022-08-09T16:51:13.844Z,2.63
2022-08-09T16:54:09.044Z,2.70
2022-08-09T16:56:31.909Z,3.13
2022-08-09T16:58:59.212Z,2.90
2022-08-09T17:01:28.945Z,3.03
2022-08-09T17:04:02.564Z,3.20
2022-08-09T17:09:45.626Z,2.80
2022-08-09T17:14:58.114Z,2.90
2022-08-09T17:17:28.320Z,2.70
2022-08-09T17:20:28.778Z,3.33
2022-08-09T17:22:52.285Z,2.87
2022-08-09T17:25:22.116Z,2.80
2022-08-09T17:30:47.606Z,3.00
2022-08-09T17:33:22.672Z,3.13
2022-08-09T17:35:49.985Z,3.10
2022-08-09T17:38:30.690Z,3.57
2022-08-09T17:41:00.787Z,3.53
2022-08-09T17:43:34.044Z,3.70
2022-08-09T17:46:06.066Z,4.10
2022-08-09T17:48:35.137Z,3.83
2022-08-09T17:51:17.218Z,3.30
2022-08-09T17:53:52.323Z,3.80
2022-08-09T17:56:27.376Z,3.53
2022-08-09T17:58:59.681Z,2.87
2022-08-09T18:01:40.795Z,3.40
2022-08-09T18:04:15.354Z,3.30
2022-08-09T18:06:54.271Z,3.37
2022-08-09T18:12:14.802Z,4.40
2022-08-09T18:14:49.689Z,4.07
2022-08-09T18:17:19.021Z,3.53
2022-08-09T18:20:59.790Z,3.30
2022-08-09T18:22:51.026Z,3.47
2022-08-09T18:25:19.680Z,3.90
2022-08-09T18:28:04.336Z,3.90
2022-08-09T18:30:41.838Z,3.20
2022-08-09T18:33:15.972Z,3.63
2022-08-09T18:35:59.463Z,3.33
2022-08-09T18:38:27.615Z,3.70
2022-08-09T18:43:53.118Z,4.37
2022-08-09T18:49:07.034Z,3.97
2022-08-09T18:54:29.809Z,3.90
2022-08-09T18:57:05.173Z,4.67
2022-08-09T18:59:48.514Z,4.47
2022-08-09T19:02:18.694Z,3.90
2022-08-09T19:04:47.977Z,4.67
2022-08-09T19:07:33.325Z,4.40
2022-08-09T19:10:14.436Z,4.93
2022-08-09T19:12:45.592Z,4.27
2022-08-09T19:15:20.631Z,4.90
2022-08-09T19:17:54.829Z,4.43
2022-08-09T19:20:26.555Z,4.40
2022-08-09T19:23:01.457Z,3.90
2022-08-09T19:26:01.462Z,4.20
2022-08-09T19:28:17.449Z,4.17
2022-08-09T19:30:53.798Z,4.27
2022-08-09T19:33:33.702Z,4.50
2022-08-09T19:36:03.819Z,4.60
2022-08-09T19:41:33.485Z,4.50
2022-08-09T19:46:50.099Z,5.37
2022-08-09T19:50:07.060Z,6.30
2022-08-09T19:52:09.481Z,4.77
2022-08-09T19:54:40.394Z,4.83
2022-08-09T19:57:08.326Z,5.40
2022-08-09T19:59:58.018Z,5.57
2022-08-09T20:05:15.035Z,5.43
2022-08-09T20:07:58.674Z,5.70
2022-08-09T20:10:34.445Z,5.50
2022-08-09T20:13:05.126Z,5.30
2022-08-09T20:16:37.479Z,5.53
2022-08-09T20:18:22.505Z,5.57
2022-08-09T20:20:51.066Z,4.80
2022-08-09T20:23:23.826Z,4.90
2022-08-09T20:25:53.426Z,4.73
2022-08-09T20:28:24.412Z,4.90
2022-08-09T20:30:55.199Z,5.47
2022-08-09T20:33:23.675Z,5.40
2022-08-09T20:35:51.643Z,7.20
2022-08-09T20:38:40.805Z,6.10
2022-08-09T20:43:58.302Z,5.73
2022-08-09T20:46:42.065Z,6.90
2022-08-09T20:49:11.344Z,7.50
2022-08-09T20:51:41.601Z,7.27
2022-08-09T20:54:10.592Z,8.20
2022-08-09T21:00:19.304Z,7.27
2022-08-09T21:02:17.693Z,7.77
2022-08-09T21:05:56.530Z,7.77
2022-08-09T21:07:40.181Z,7.93
2022-08-09T21:10:09.361Z,7.13
2022-08-09T21:15:23.684Z,6.57
2022-08-09T21:18:24.993Z,7.20
2022-08-09T21:20:54.162Z,7.20
2022-08-09T21:23:35.944Z,6.97
2022-08-09T21:26:09.458Z,7.47
2022-08-09T21:28:36.552Z,7.90
2022-08-09T21:31:16.681Z,7.17
2022-08-09T21:33:50.840Z,7.70
2022-08-09T21:36:23.220Z,8.17
2022-08-09T21:38:57.226Z,10.10
2022-08-09T21:42:04.080Z,9.67
2022-08-09T21:44:34.079Z,8.70
2022-08-09T21:47:05.917Z,8.00
2022-08-09T21:49:40.126Z,9.50
2022-08-09T21:52:17.019Z,10.07
2022-08-09T21:54:59.590Z,10.63
2022-08-09T21:57:39.242Z,8.77
2022-08-09T22:00:36.744Z,10.47
2022-08-09T22:03:07.485Z,10.20
2022-08-09T22:08:28.128Z,11.47
2022-08-09T22:11:00.388Z,11.87
2022-08-09T22:13:43.516Z,11.57
2022-08-09T22:16:10.852Z,12.37
2022-08-09T22:18:38.128Z,11.93
2022-08-09T22:21:09.237Z,11.60
2022-08-09T22:24:00.201Z,11.63
2022-08-09T22:26:34.791Z,10.27
2022-08-09T22:29:07.090Z,11.47
2022-08-09T22:31:36.382Z,10.80
2022-08-09T22:34:03.189Z,10.57
2022-08-09T22:36:37.353Z,10.70
2022-08-09T22:41:58.915Z,10.90
2022-08-09T22:44:26.010Z,10.77
2022-08-09T22:48:17.101Z,10.67
2022-08-09T22:52:31.053Z,10.27
2022-08-09T22:54:59.066Z,10.30
2022-08-09T22:57:31.516Z,9.23
2022-08-09T23:00:02.678Z,9.40
2022-08-09T23:02:29.731Z,10.40
2022-08-09T23:04:57.453Z,10.27
2022-08-09T23:08:23.046Z,11.00
2022-08-09T23:10:30.172Z,9.50
2022-08-09T23:12:57.124Z,9.40
2022-08-09T23:15:23.888Z,8.57
2022-08-09T23:17:50.619Z,8.60
2022-08-09T23:20:17.291Z,8.93
2022-08-09T23:25:29.001Z,8.53
2022-08-09T23:28:14.811Z,7.80
2022-08-09T23:30:51.181Z,8.17
2022-08-09T23:33:18.524Z,8.33
2022-08-09T23:36:06.499Z,8.97
2022-08-09T23:38:31.874Z,9.27
2022-08-09T23:40:59.118Z,8.80
2022-08-09T23:43:25.793Z,8.17
2022-08-09T23:45:52.638Z,8.40
2022-08-09T23:48:19.785Z,9.63
2022-08-09T23:50:46.653Z,7.93
2022-08-09T23:53:13.329Z,7.43
2022-08-09T23:55:49.538Z,8.30
2022-08-09T23:58:25.775Z,7.87
